sensor_id;sensor_type;location;lat;lon;timestamp;pressure;altitude;pressure_sealevel;temperature;humidity
12475;BME280;6302;42.624;23.334;2023-06-22T00:00:13;93764.38;;;20.15;100.00
12475;BME280;6302;42.624;23.334;2023-06-22T00:02:40;93760.31;;;20.10;100.00
12475;BME280;6302;42.624;23.334;2023-06-22T00:05:07;93763.28;;;20.03;100.00
12475;BME280;6302;42.624;23.334;2023-06-22T00:07:34;93755.78;;;19.98;100.00
12475;BME280;6302;42.624;23.334;2023-06-22T00:10:02;93751.53;;;19.88;100.00
12475;BME280;6302;42.624;23.334;2023-06-22T00:12:29;93757.78;;;19.85;100.00
12475;BME280;6302;42.624;23.334;2023-06-22T00:14:57;93750.72;;;19.79;100.00
12475;BME280;6302;42.624;23.334;2023-06-22T00:17:24;93751.28;;;19.74;100.00
12475;BME280;6302;42.624;23.334;2023-06-22T00:19:51;93748.41;;;19.68;100.00
12475;BME280;6302;42.624;23.334;2023-06-22T00:22:19;93748.97;;;19.63;100.00
12475;BME280;6302;42.624;23.334;2023-06-22T00:24:54;93739.03;;;19.51;100.00
12475;BME280;6302;42.624;23.334;2023-06-22T00:27:22;93739.78;;;19.52;100.00
12475;BME280;6302;42.624;23.334;2023-06-22T00:29:49;93733.13;;;19.43;100.00
12475;BME280;6302;42.624;23.334;2023-06-22T00:32:17;93729.09;;;19.39;100.00
12475;BME280;6302;42.624;23.334;2023-06-22T00:34:44;93721.13;;;19.35;100.00
12475;BME280;6302;42.624;23.334;2023-06-22T00:37:10;93722.41;;;19.31;100.00
12475;BME280;6302;42.624;23.334;2023-06-22T00:39:37;93728.34;;;19.26;100.00
12475;BME280;6302;42.624;23.334;2023-06-22T00:42:04;93733.09;;;19.22;100.00
12475;BME280;6302;42.624;23.334;2023-06-22T00:44:33;93717.84;;;19.19;100.00
12475;BME280;6302;42.624;23.334;2023-06-22T00:46:59;93719.59;;;19.13;100.00
12475;BME280;6302;42.624;23.334;2023-06-22T00:49:26;93722.69;;;19.11;100.00
12475;BME280;6302;42.624;23.334;2023-06-22T00:51:53;93725.84;;;19.10;100.00
12475;BME280;6302;42.624;23.334;2023-06-22T00:54:20;93728.84;;;19.12;100.00
12475;BME280;6302;42.624;23.334;2023-06-22T00:56:50;93733.44;;;19.11;100.00
12475;BME280;6302;42.624;23.334;2023-06-22T00:59:18;93728.22;;;19.08;100.00
12475;BME280;6302;42.624;23.334;2023-06-22T01:01:46;93721.22;;;19.10;100.00
12475;BME280;6302;42.624;23.334;2023-06-22T01:04:13;93727.00;;;19.09;100.00
12475;BME280;6302;42.624;23.334;2023-06-22T01:06:47;93730.91;;;19.08;100.00
12475;BME280;6302;42.624;23.334;2023-06-22T01:09:21;93741.94;;;19.10;100.00
12475;BME280;6302;42.624;23.334;2023-06-22T01:11:53;93723.69;;;19.05;100.00
12475;BME280;6302;42.624;23.334;2023-06-22T01:14:25;93730.34;;;19.13;100.00
12475;BME280;6302;42.624;23.334;2023-06-22T01:16:55;93731.09;;;19.13;100.00
12475;BME280;6302;42.624;23.334;2023-06-22T01:19:34;93735.72;;;19.13;100.00
12475;BME280;6302;42.624;23.334;2023-06-22T01:22:03;93735.41;;;19.11;100.00
12475;BME280;6302;42.624;23.334;2023-06-22T01:24:33;93737.03;;;19.08;100.00
12475;BME280;6302;42.624;23.334;2023-06-22T01:27:17;93736.28;;;19.08;100.00
12475;BME280;6302;42.624;23.334;2023-06-22T01:29:50;93736.38;;;19.04;100.00
12475;BME280;6302;42.624;23.334;2023-06-22T01:32:18;93743.13;;;19.09;100.00
12475;BME280;6302;42.624;23.334;2023-06-22T01:34:46;93758.81;;;19.10;100.00
12475;BME280;6302;42.624;23.334;2023-06-22T01:37:14;93749.69;;;19.08;100.00
12475;BME280;6302;42.624;23.334;2023-06-22T01:39:42;93750.56;;;19.05;100.00
12475;BME280;6302;42.624;23.334;2023-06-22T01:42:09;93747.13;;;19.04;100.00
12475;BME280;6302;42.624;23.334;2023-06-22T01:44:37;93743.81;;;19.00;100.00
12475;BME280;6302;42.624;23.334;2023-06-22T01:47:07;93749.28;;;18.97;100.00
12475;BME280;6302;42.624;23.334;2023-06-22T01:49:34;93744.78;;;18.94;100.00
12475;BME280;6302;42.624;23.334;2023-06-22T01:52:01;93752.53;;;18.92;100.00
12475;BME280;6302;42.624;23.334;2023-06-22T01:54:27;93747.28;;;18.88;100.00
12475;BME280;6302;42.624;23.334;2023-06-22T01:56:54;93754.56;;;18.88;100.00
12475;BME280;6302;42.624;23.334;2023-06-22T01:59:25;93758.78;;;18.89;100.00
12475;BME280;6302;42.624;23.334;2023-06-22T02:01:59;93746.63;;;18.84;100.00
12475;BME280;6302;42.624;23.334;2023-06-22T02:04:32;93751.91;;;18.88;100.00
12475;BME280;6302;42.624;23.334;2023-06-22T02:07:05;93759.19;;;18.87;100.00
12475;BME280;6302;42.624;23.334;2023-06-22T02:09:38;93765.31;;;18.88;100.00
12475;BME280;6302;42.624;23.334;2023-06-22T02:12:10;93765.00;;;18.86;100.00
12475;BME280;6302;42.624;23.334;2023-06-22T02:14:39;93769.19;;;18.87;100.00
12475;BME280;6302;42.624;23.334;2023-06-22T02:17:08;93766.50;;;18.87;100.00
12475;BME280;6302;42.624;23.334;2023-06-22T02:19:37;93758.78;;;18.89;100.00
12475;BME280;6302;42.624;23.334;2023-06-22T02:22:05;93748.03;;;18.89;100.00
12475;BME280;6302;42.624;23.334;2023-06-22T02:24:32;93748.75;;;18.89;100.00
12475;BME280;6302;42.624;23.334;2023-06-22T02:26:59;93746.84;;;18.90;100.00
12475;BME280;6302;42.624;23.334;2023-06-22T02:29:26;93744.69;;;18.84;100.00
12475;BME280;6302;42.624;23.334;2023-06-22T02:31:53;93753.94;;;18.83;100.00
12475;BME280;6302;42.624;23.334;2023-06-22T02:34:21;93752.44;;;18.82;100.00
12475;BME280;6302;42.624;23.334;2023-06-22T02:36:50;93751.69;;;18.82;100.00
12475;BME280;6302;42.624;23.334;2023-06-22T02:39:19;93751.28;;;18.83;100.00
12475;BME280;6302;42.624;23.334;2023-06-22T02:41:47;93756.75;;;18.80;100.00
12475;BME280;6302;42.624;23.334;2023-06-22T02:44:14;93752.22;;;18.77;100.00
12475;BME280;6302;42.624;23.334;2023-06-22T02:46:41;93751.59;;;18.73;100.00
12475;BME280;6302;42.624;23.334;2023-06-22T02:49:08;93754.28;;;18.73;100.00
12475;BME280;6302;42.624;23.334;2023-06-22T02:51:36;93757.38;;;18.71;100.00
12475;BME280;6302;42.624;23.334;2023-06-22T02:54:06;93762.75;;;18.71;100.00
12475;BME280;6302;42.624;23.334;2023-06-22T02:56:33;93768.13;;;18.71;100.00
12475;BME280;6302;42.624;23.334;2023-06-22T02:59:01;93763.50;;;18.72;100.00
12475;BME280;6302;42.624;23.334;2023-06-22T03:01:28;93766.94;;;18.72;100.00
12475;BME280;6302;42.624;23.334;2023-06-22T03:03:55;93758.03;;;18.75;100.00
12475;BME280;6302;42.624;23.334;2023-06-22T03:06:22;93756.75;;;18.80;100.00
12475;BME280;6302;42.624;23.334;2023-06-22T03:08:58;93763.94;;;18.83;100.00
12475;BME280;6302;42.624;23.334;2023-06-22T03:11:27;93756.50;;;18.87;100.00
12475;BME280;6302;42.624;23.334;2023-06-22T03:13:54;93765.63;;;18.90;100.00
12475;BME280;6302;42.624;23.334;2023-06-22T03:16:20;93771.31;;;18.92;100.00
12475;BME280;6302;42.624;23.334;2023-06-22T03:18:47;93768.53;;;18.95;100.00
12475;BME280;6302;42.624;23.334;2023-06-22T03:21:14;93773.78;;;18.99;100.00
12475;BME280;6302;42.624;23.334;2023-06-22T03:23:42;93790.97;;;19.01;100.00
12475;BME280;6302;42.624;23.334;2023-06-22T03:26:09;93789.88;;;18.99;100.00
12475;BME280;6302;42.624;23.334;2023-06-22T03:28:37;93795.91;;;19.03;100.00
12475;BME280;6302;42.624;23.334;2023-06-22T03:31:04;93788.78;;;19.09;100.00
12475;BME280;6302;42.624;23.334;2023-06-22T03:33:32;93798.44;;;19.19;100.00
12475;BME280;6302;42.624;23.334;2023-06-22T03:35:59;93788.75;;;19.21;100.00
12475;BME280;6302;42.624;23.334;2023-06-22T03:38:25;93791.97;;;19.29;100.00
12475;BME280;6302;42.624;23.334;2023-06-22T03:40:52;93792.41;;;19.40;100.00
12475;BME280;6302;42.624;23.334;2023-06-22T03:43:19;93791.31;;;19.50;100.00
12475;BME280;6302;42.624;23.334;2023-06-22T03:45:47;93791.38;;;19.59;100.00
12475;BME280;6302;42.624;23.334;2023-06-22T03:48:14;93793.84;;;19.54;100.00
12475;BME280;6302;42.624;23.334;2023-06-22T03:50:41;93802.44;;;19.61;100.00
12475;BME280;6302;42.624;23.334;2023-06-22T03:53:09;93802.94;;;19.69;100.00
12475;BME280;6302;42.624;23.334;2023-06-22T03:55:36;93802.56;;;19.79;100.00
12475;BME280;6302;42.624;23.334;2023-06-22T03:58:03;93818.47;;;19.86;100.00
12475;BME280;6302;42.624;23.334;2023-06-22T04:00:31;93805.56;;;19.81;100.00
12475;BME280;6302;42.624;23.334;2023-06-22T04:02:59;93812.69;;;19.75;100.00
12475;BME280;6302;42.624;23.334;2023-06-22T04:05:26;93818.56;;;19.61;100.00
12475;BME280;6302;42.624;23.334;2023-06-22T04:07:53;93826.25;;;19.50;100.00
12475;BME280;6302;42.624;23.334;2023-06-22T04:10:19;93824.41;;;19.47;100.00
12475;BME280;6302;42.624;23.334;2023-06-22T04:12:46;93822.13;;;19.58;100.00
12475;BME280;6302;42.624;23.334;2023-06-22T04:15:13;93815.94;;;19.70;100.00
12475;BME280;6302;42.624;23.334;2023-06-22T04:17:40;93805.69;;;19.78;100.00
12475;BME280;6302;42.624;23.334;2023-06-22T04:20:09;93798.44;;;19.87;100.00
12475;BME280;6302;42.624;23.334;2023-06-22T04:22:36;93797.31;;;19.97;100.00
12475;BME280;6302;42.624;23.334;2023-06-22T04:25:03;93799.91;;;20.10;100.00
12475;BME280;6302;42.624;23.334;2023-06-22T04:27:31;93796.41;;;20.22;100.00
12475;BME280;6302;42.624;23.334;2023-06-22T04:29:57;93787.97;;;20.33;100.00
12475;BME280;6302;42.624;23.334;2023-06-22T04:32:25;93791.91;;;20.41;100.00
12475;BME280;6302;42.624;23.334;2023-06-22T04:34:52;93782.03;;;20.47;100.00
12475;BME280;6302;42.624;23.334;2023-06-22T04:37:20;93778.34;;;20.53;100.00
12475;BME280;6302;42.624;23.334;2023-06-22T04:39:48;93778.81;;;20.61;100.00
12475;BME280;6302;42.624;23.334;2023-06-22T04:42:15;93783.06;;;20.71;100.00
12475;BME280;6302;42.624;23.334;2023-06-22T04:44:42;93781.91;;;20.81;100.00
12475;BME280;6302;42.624;23.334;2023-06-22T04:47:09;93779.81;;;20.85;100.00
12475;BME280;6302;42.624;23.334;2023-06-22T04:49:36;93791.25;;;21.07;100.00
12475;BME280;6302;42.624;23.334;2023-06-22T04:52:05;93789.50;;;21.22;100.00
12475;BME280;6302;42.624;23.334;2023-06-22T04:54:34;93789.19;;;21.29;100.00
12475;BME280;6302;42.624;23.334;2023-06-22T04:57:02;93800.56;;;21.33;100.00
12475;BME280;6302;42.624;23.334;2023-06-22T04:59:30;93804.78;;;21.34;100.00
12475;BME280;6302;42.624;23.334;2023-06-22T05:01:57;93809.59;;;21.39;100.00
12475;BME280;6302;42.624;23.334;2023-06-22T05:04:25;93810.94;;;21.44;100.00
12475;BME280;6302;42.624;23.334;2023-06-22T05:06:54;93811.97;;;21.47;100.00
12475;BME280;6302;42.624;23.334;2023-06-22T05:09:21;93820.53;;;21.54;100.00
12475;BME280;6302;42.624;23.334;2023-06-22T05:11:49;93819.03;;;21.53;100.00
12475;BME280;6302;42.624;23.334;2023-06-22T05:14:16;93816.34;;;21.62;100.00
12475;BME280;6302;42.624;23.334;2023-06-22T05:16:43;93819.94;;;21.68;100.00
12475;BME280;6302;42.624;23.334;2023-06-22T05:19:10;93818.88;;;21.84;100.00
12475;BME280;6302;42.624;23.334;2023-06-22T05:21:38;93807.94;;;22.06;100.00
12475;BME280;6302;42.624;23.334;2023-06-22T05:24:05;93805.81;;;22.28;100.00
12475;BME280;6302;42.624;23.334;2023-06-22T05:26:33;93809.09;;;22.41;100.00
12475;BME280;6302;42.624;23.334;2023-06-22T05:29:05;93805.28;;;22.56;100.00
12475;BME280;6302;42.624;23.334;2023-06-22T05:31:32;93815.63;;;22.67;100.00
12475;BME280;6302;42.624;23.334;2023-06-22T05:34:01;93821.66;;;22.53;100.00
12475;BME280;6302;42.624;23.334;2023-06-22T05:36:28;93823.88;;;22.54;100.00
12475;BME280;6302;42.624;23.334;2023-06-22T05:38:56;93825.97;;;22.59;100.00
12475;BME280;6302;42.624;23.334;2023-06-22T05:41:23;93829.84;;;22.77;100.00
12475;BME280;6302;42.624;23.334;2023-06-22T05:43:51;93839.13;;;22.85;100.00
12475;BME280;6302;42.624;23.334;2023-06-22T05:46:19;93849.16;;;22.93;100.00
12475;BME280;6302;42.624;23.334;2023-06-22T05:48:46;93860.69;;;22.94;100.00
12475;BME280;6302;42.624;23.334;2023-06-22T05:51:13;93856.19;;;23.00;100.00
12475;BME280;6302;42.624;23.334;2023-06-22T05:53:40;93853.72;;;23.11;100.00
12475;BME280;6302;42.624;23.334;2023-06-22T05:56:06;93855.78;;;23.16;100.00
12475;BME280;6302;42.624;23.334;2023-06-22T05:58:35;93854.31;;;23.15;100.00
12475;BME280;6302;42.624;23.334;2023-06-22T06:01:04;93855.56;;;23.28;100.00
12475;BME280;6302;42.624;23.334;2023-06-22T06:03:32;93854.75;;;23.46;100.00
12475;BME280;6302;42.624;23.334;2023-06-22T06:05:59;93851.34;;;23.60;100.00
12475;BME280;6302;42.624;23.334;2023-06-22T06:08:27;93847.94;;;23.60;100.00
12475;BME280;6302;42.624;23.334;2023-06-22T06:10:54;93845.31;;;23.65;100.00
12475;BME280;6302;42.624;23.334;2023-06-22T06:13:22;93842.03;;;23.61;100.00
12475;BME280;6302;42.624;23.334;2023-06-22T06:15:49;93839.47;;;23.67;100.00
12475;BME280;6302;42.624;23.334;2023-06-22T06:18:17;93831.97;;;23.62;100.00
12475;BME280;6302;42.624;23.334;2023-06-22T06:20:45;93835.00;;;23.78;100.00
12475;BME280;6302;42.624;23.334;2023-06-22T06:23:12;93833.34;;;23.95;100.00
12475;BME280;6302;42.624;23.334;2023-06-22T06:25:39;93830.66;;;23.95;100.00
12475;BME280;6302;42.624;23.334;2023-06-22T06:28:05;93835.50;;;23.91;100.00
12475;BME280;6302;42.624;23.334;2023-06-22T06:30:32;93832.06;;;24.06;100.00
12475;BME280;6302;42.624;23.334;2023-06-22T06:33:00;93829.66;;;24.08;100.00
12475;BME280;6302;42.624;23.334;2023-06-22T06:35:27;93844.25;;;24.25;100.00
12475;BME280;6302;42.624;23.334;2023-06-22T06:37:55;93835.75;;;24.17;100.00
12475;BME280;6302;42.624;23.334;2023-06-22T06:40:22;93835.69;;;24.26;100.00
12475;BME280;6302;42.624;23.334;2023-06-22T06:42:48;93826.31;;;24.42;100.00
12475;BME280;6302;42.624;23.334;2023-06-22T06:45:17;93828.84;;;24.60;100.00
12475;BME280;6302;42.624;23.334;2023-06-22T06:47:44;93825.59;;;24.85;100.00
12475;BME280;6302;42.624;23.334;2023-06-22T06:50:11;93824.03;;;25.13;100.00
12475;BME280;6302;42.624;23.334;2023-06-22T06:52:38;93825.13;;;25.21;100.00
12475;BME280;6302;42.624;23.334;2023-06-22T06:55:08;93824.09;;;25.19;96.54
12475;BME280;6302;42.624;23.334;2023-06-22T06:57:37;93818.59;;;25.13;95.71
12475;BME280;6302;42.624;23.334;2023-06-22T07:00:05;93816.28;;;25.06;97.21
12475;BME280;6302;42.624;23.334;2023-06-22T07:02:37;93815.66;;;24.97;98.47
12475;BME280;6302;42.624;23.334;2023-06-22T07:05:04;93826.19;;;25.09;99.32
12475;BME280;6302;42.624;23.334;2023-06-22T07:07:31;93809.44;;;25.11;100.00
12475;BME280;6302;42.624;23.334;2023-06-22T07:09:58;93817.56;;;25.26;99.35
12475;BME280;6302;42.624;23.334;2023-06-22T07:12:27;93821.03;;;25.11;96.77
12475;BME280;6302;42.624;23.334;2023-06-22T07:14:53;93820.25;;;25.26;96.92
12475;BME280;6302;42.624;23.334;2023-06-22T07:17:20;93818.13;;;25.50;98.07
12475;BME280;6302;42.624;23.334;2023-06-22T07:19:47;93821.53;;;25.65;96.47
12475;BME280;6302;42.624;23.334;2023-06-22T07:22:14;93819.84;;;25.67;95.76
12475;BME280;6302;42.624;23.334;2023-06-22T07:24:40;93833.06;;;25.60;94.60
12475;BME280;6302;42.624;23.334;2023-06-22T07:27:07;93823.09;;;25.51;91.18
12475;BME280;6302;42.624;23.334;2023-06-22T07:29:38;93818.16;;;25.35;94.53
12475;BME280;6302;42.624;23.334;2023-06-22T07:32:08;93822.16;;;25.40;98.85
12475;BME280;6302;42.624;23.334;2023-06-22T07:34:34;93824.41;;;25.41;97.79
12475;BME280;6302;42.624;23.334;2023-06-22T07:37:01;93822.34;;;25.51;93.66
12475;BME280;6302;42.624;23.334;2023-06-22T07:39:29;93820.78;;;25.64;94.58
12475;BME280;6302;42.624;23.334;2023-06-22T07:41:56;93831.44;;;25.68;97.01
12475;BME280;6302;42.624;23.334;2023-06-22T07:44:23;93828.31;;;25.75;93.51
12475;BME280;6302;42.624;23.334;2023-06-22T07:46:52;93832.78;;;25.78;93.91
12475;BME280;6302;42.624;23.334;2023-06-22T07:49:19;93832.38;;;25.85;91.28
12475;BME280;6302;42.624;23.334;2023-06-22T07:51:45;93823.75;;;25.87;91.10
12475;BME280;6302;42.624;23.334;2023-06-22T07:54:12;93834.97;;;25.94;91.94
12475;BME280;6302;42.624;23.334;2023-06-22T07:56:41;93836.03;;;26.02;88.10
12475;BME280;6302;42.624;23.334;2023-06-22T07:59:08;93831.06;;;26.21;94.03
12475;BME280;6302;42.624;23.334;2023-06-22T08:01:35;93826.44;;;26.27;88.75
12475;BME280;6302;42.624;23.334;2023-06-22T08:04:03;93828.31;;;26.41;89.08
12475;BME280;6302;42.624;23.334;2023-06-22T08:06:31;93829.41;;;26.55;87.38
12475;BME280;6302;42.624;23.334;2023-06-22T08:08:58;93825.66;;;26.52;87.76
12475;BME280;6302;42.624;23.334;2023-06-22T08:11:24;93825.22;;;26.54;84.81
12475;BME280;6302;42.624;23.334;2023-06-22T08:13:51;93820.22;;;26.46;84.45
12475;BME280;6302;42.624;23.334;2023-06-22T08:16:20;93819.91;;;26.44;83.58
12475;BME280;6302;42.624;23.334;2023-06-22T08:18:47;93809.72;;;26.65;84.37
12475;BME280;6302;42.624;23.334;2023-06-22T08:21:28;93819.09;;;26.64;83.51
12475;BME280;6302;42.624;23.334;2023-06-22T08:23:55;93805.56;;;26.70;85.14
12475;BME280;6302;42.624;23.334;2023-06-22T08:26:22;93810.25;;;26.69;84.39
12475;BME280;6302;42.624;23.334;2023-06-22T08:28:49;93802.69;;;26.79;84.26
12475;BME280;6302;42.624;23.334;2023-06-22T08:31:15;93800.66;;;27.05;83.57
12475;BME280;6302;42.624;23.334;2023-06-22T08:33:42;93792.16;;;27.34;80.20
12475;BME280;6302;42.624;23.334;2023-06-22T08:36:11;93794.44;;;27.41;81.08
12475;BME280;6302;42.624;23.334;2023-06-22T08:38:40;93794.19;;;27.39;80.90
12475;BME280;6302;42.624;23.334;2023-06-22T08:41:07;93803.38;;;27.42;80.29
12475;BME280;6302;42.624;23.334;2023-06-22T08:43:35;93801.97;;;27.57;81.95
12475;BME280;6302;42.624;23.334;2023-06-22T08:46:02;93807.53;;;27.37;82.02
12475;BME280;6302;42.624;23.334;2023-06-22T08:48:29;93808.34;;;27.12;81.78
12475;BME280;6302;42.624;23.334;2023-06-22T08:50:56;93807.09;;;27.07;81.26
12475;BME280;6302;42.624;23.334;2023-06-22T08:53:23;93812.94;;;26.95;80.52
12475;BME280;6302;42.624;23.334;2023-06-22T08:55:51;93811.22;;;26.97;81.11
12475;BME280;6302;42.624;23.334;2023-06-22T08:58:18;93810.28;;;27.00;82.51
12475;BME280;6302;42.624;23.334;2023-06-22T09:00:45;93805.31;;;26.99;80.25
12475;BME280;6302;42.624;23.334;2023-06-22T09:03:12;93798.00;;;27.16;82.62
12475;BME280;6302;42.624;23.334;2023-06-22T09:05:39;93801.06;;;27.35;82.83
12475;BME280;6302;42.624;23.334;2023-06-22T09:08:06;93789.00;;;27.41;79.32
12475;BME280;6302;42.624;23.334;2023-06-22T09:10:33;93791.78;;;27.52;80.36
12475;BME280;6302;42.624;23.334;2023-06-22T09:13:01;93783.63;;;27.52;75.08
12475;BME280;6302;42.624;23.334;2023-06-22T09:15:28;93791.63;;;27.72;72.65
12475;BME280;6302;42.624;23.334;2023-06-22T09:17:55;93785.44;;;27.77;70.09
12475;BME280;6302;42.624;23.334;2023-06-22T09:20:22;93786.44;;;27.74;68.88
12475;BME280;6302;42.624;23.334;2023-06-22T09:22:49;93787.44;;;27.83;72.60
12475;BME280;6302;42.624;23.334;2023-06-22T09:25:16;93788.44;;;27.91;73.83
12475;BME280;6302;42.624;23.334;2023-06-22T09:27:45;93788.44;;;27.91;71.19
12475;BME280;6302;42.624;23.334;2023-06-22T09:30:14;93778.63;;;28.04;72.80
12475;BME280;6302;42.624;23.334;2023-06-22T09:32:41;93787.09;;;28.34;72.94
12475;BME280;6302;42.624;23.334;2023-06-22T09:35:12;93797.25;;;28.50;69.98
12475;BME280;6302;42.624;23.334;2023-06-22T09:37:39;93795.28;;;28.56;69.27
12475;BME280;6302;42.624;23.334;2023-06-22T09:40:07;93804.00;;;28.71;71.59
12475;BME280;6302;42.624;23.334;2023-06-22T09:42:36;93800.78;;;28.78;66.89
12475;BME280;6302;42.624;23.334;2023-06-22T09:45:04;93799.03;;;28.75;66.55
12475;BME280;6302;42.624;23.334;2023-06-22T09:47:32;93800.47;;;28.54;66.96
12475;BME280;6302;42.624;23.334;2023-06-22T09:49:59;93802.75;;;28.72;67.34
12475;BME280;6302;42.624;23.334;2023-06-22T09:52:27;93798.53;;;28.93;64.34
12475;BME280;6302;42.624;23.334;2023-06-22T09:54:54;93792.09;;;28.91;62.48
12475;BME280;6302;42.624;23.334;2023-06-22T09:57:21;93793.84;;;28.88;61.38
12475;BME280;6302;42.624;23.334;2023-06-22T09:59:47;93789.84;;;28.95;60.83
12475;BME280;6302;42.624;23.334;2023-06-22T10:02:14;93775.94;;;29.10;63.38
12475;BME280;6302;42.624;23.334;2023-06-22T10:04:43;93777.88;;;29.37;64.89
12475;BME280;6302;42.624;23.334;2023-06-22T10:07:10;93775.59;;;29.52;59.70
12475;BME280;6302;42.624;23.334;2023-06-22T10:09:36;93779.09;;;29.36;58.38
12475;BME280;6302;42.624;23.334;2023-06-22T10:12:03;93770.19;;;29.19;58.17
12475;BME280;6302;42.624;23.334;2023-06-22T10:14:30;93771.72;;;28.97;61.35
12475;BME280;6302;42.624;23.334;2023-06-22T10:16:57;93776.41;;;29.14;64.62
12475;BME280;6302;42.624;23.334;2023-06-22T10:19:24;93776.13;;;29.45;62.28
12475;BME280;6302;42.624;23.334;2023-06-22T10:21:52;93773.28;;;29.73;57.77
12475;BME280;6302;42.624;23.334;2023-06-22T10:24:19;93770.72;;;29.91;59.82
12475;BME280;6302;42.624;23.334;2023-06-22T10:26:46;93767.41;;;30.09;58.08
12475;BME280;6302;42.624;23.334;2023-06-22T10:29:12;93772.88;;;30.09;54.17
12475;BME280;6302;42.624;23.334;2023-06-22T10:31:39;93766.72;;;29.98;55.16
12475;BME280;6302;42.624;23.334;2023-06-22T10:34:06;93762.94;;;30.06;57.62
12475;BME280;6302;42.624;23.334;2023-06-22T10:36:34;93754.88;;;30.25;57.77
12475;BME280;6302;42.624;23.334;2023-06-22T10:39:02;93761.00;;;30.01;54.30
12475;BME280;6302;42.624;23.334;2023-06-22T10:41:29;93755.53;;;30.01;57.85
12475;BME280;6302;42.624;23.334;2023-06-22T10:43:56;93752.69;;;30.18;57.45
12475;BME280;6302;42.624;23.334;2023-06-22T10:46:24;93761.00;;;30.42;55.69
12475;BME280;6302;42.624;23.334;2023-06-22T10:48:53;93751.28;;;30.47;54.83
12475;BME280;6302;42.624;23.334;2023-06-22T10:51:22;93756.94;;;30.13;55.44
12475;BME280;6302;42.624;23.334;2023-06-22T10:53:49;93749.72;;;30.16;55.13
12475;BME280;6302;42.624;23.334;2023-06-22T10:56:18;93750.78;;;30.43;55.25
12475;BME280;6302;42.624;23.334;2023-06-22T10:58:45;93753.53;;;30.43;55.61
12475;BME280;6302;42.624;23.334;2023-06-22T11:01:12;93745.44;;;30.61;53.66
12475;BME280;6302;42.624;23.334;2023-06-22T11:03:39;93745.25;;;30.54;54.62
12475;BME280;6302;42.624;23.334;2023-06-22T11:06:06;93751.81;;;30.40;55.58
12475;BME280;6302;42.624;23.334;2023-06-22T11:08:33;93745.56;;;30.45;55.27
12475;BME280;6302;42.624;23.334;2023-06-22T11:11:01;93746.41;;;30.64;54.37
12475;BME280;6302;42.624;23.334;2023-06-22T11:13:29;93739.69;;;30.65;54.20
12475;BME280;6302;42.624;23.334;2023-06-22T11:15:55;93749.03;;;30.75;54.75
12475;BME280;6302;42.624;23.334;2023-06-22T11:18:22;93743.56;;;30.75;54.94
12475;BME280;6302;42.624;23.334;2023-06-22T11:20:49;93737.66;;;31.01;56.41
12475;BME280;6302;42.624;23.334;2023-06-22T11:23:16;93737.69;;;31.19;51.18
12475;BME280;6302;42.624;23.334;2023-06-22T11:25:47;93729.47;;;31.19;50.25
12475;BME280;6302;42.624;23.334;2023-06-22T11:28:18;93725.38;;;31.07;48.90
12475;BME280;6302;42.624;23.334;2023-06-22T11:30:47;93731.88;;;31.04;50.24
12475;BME280;6302;42.624;23.334;2023-06-22T11:33:15;93730.41;;;31.03;50.16
12475;BME280;6302;42.624;23.334;2023-06-22T11:35:42;93721.03;;;31.17;51.80
12475;BME280;6302;42.624;23.334;2023-06-22T11:38:12;93727.50;;;31.38;47.96
12475;BME280;6302;42.624;23.334;2023-06-22T11:40:43;93723.22;;;31.00;50.36
12475;BME280;6302;42.624;23.334;2023-06-22T11:43:10;93726.53;;;30.93;51.12
12475;BME280;6302;42.624;23.334;2023-06-22T11:45:41;93720.53;;;30.89;52.82
12475;BME280;6302;42.624;23.334;2023-06-22T11:48:11;93709.25;;;30.74;52.94
12475;BME280;6302;42.624;23.334;2023-06-22T11:50:41;93722.47;;;30.70;52.17
12475;BME280;6302;42.624;23.334;2023-06-22T11:53:15;93707.63;;;30.60;51.57
12475;BME280;6302;42.624;23.334;2023-06-22T11:55:47;93707.75;;;30.49;52.76
12475;BME280;6302;42.624;23.334;2023-06-22T11:58:16;93701.56;;;30.43;51.37
12475;BME280;6302;42.624;23.334;2023-06-22T12:00:51;93711.72;;;30.48;53.59
12475;BME280;6302;42.624;23.334;2023-06-22T12:03:22;93702.72;;;30.53;53.79
12475;BME280;6302;42.624;23.334;2023-06-22T12:05:56;93709.91;;;30.56;52.47
12475;BME280;6302;42.624;23.334;2023-06-22T12:08:28;93713.72;;;30.47;50.26
12475;BME280;6302;42.624;23.334;2023-06-22T12:10:56;93725.06;;;30.57;52.41
12475;BME280;6302;42.624;23.334;2023-06-22T12:13:25;93710.84;;;30.64;53.86
12475;BME280;6302;42.624;23.334;2023-06-22T12:15:55;93715.75;;;30.71;53.49
12475;BME280;6302;42.624;23.334;2023-06-22T12:18:27;93721.59;;;30.56;51.94
12475;BME280;6302;42.624;23.334;2023-06-22T12:20:57;93721.28;;;30.30;52.76
12475;BME280;6302;42.624;23.334;2023-06-22T12:23:25;93714.56;;;29.96;53.98
12475;BME280;6302;42.624;23.334;2023-06-22T12:25:53;93696.09;;;29.61;57.62
12475;BME280;6302;42.624;23.334;2023-06-22T12:28:20;93697.00;;;29.17;56.00
12475;BME280;6302;42.624;23.334;2023-06-22T12:30:49;93692.16;;;28.55;58.34
12475;BME280;6302;42.624;23.334;2023-06-22T12:33:23;93695.16;;;28.51;60.97
12475;BME280;6302;42.624;23.334;2023-06-22T12:35:51;93703.84;;;28.44;62.70
12475;BME280;6302;42.624;23.334;2023-06-22T12:38:22;93730.09;;;28.36;66.62
12475;BME280;6302;42.624;23.334;2023-06-22T12:40:51;93712.97;;;28.08;70.67
12475;BME280;6302;42.624;23.334;2023-06-22T12:43:21;93768.38;;;27.77;75.78
12475;BME280;6302;42.624;23.334;2023-06-22T12:45:54;93729.19;;;26.36;84.68
12475;BME280;6302;42.624;23.334;2023-06-22T12:48:25;93767.56;;;26.18;88.61
12475;BME280;6302;42.624;23.334;2023-06-22T12:50:57;93773.34;;;26.06;97.84
12475;BME280;6302;42.624;23.334;2023-06-22T12:53:27;93778.38;;;25.93;100.00
12475;BME280;6302;42.624;23.334;2023-06-22T12:55:54;93781.88;;;25.73;100.00
12475;BME280;6302;42.624;23.334;2023-06-22T12:58:21;93781.53;;;25.65;100.00